createdAt,value
2019-05-30T00:02:42.485Z,2.67
2019-05-30T00:05:47.659Z,2.37
2019-05-30T00:08:54.219Z,2.80
2019-05-30T00:12:00.807Z,2.77
2019-05-30T00:15:06.780Z,2.87
2019-05-30T00:18:11.968Z,2.90
2019-05-30T00:21:17.101Z,3.00
2019-05-30T00:24:22.237Z,2.63
2019-05-30T00:27:27.462Z,3.00
2019-05-30T00:30:32.602Z,2.50
2019-05-30T00:33:37.836Z,2.57
2019-05-30T00:36:43.073Z,2.80
2019-05-30T00:39:48.332Z,2.50
2019-05-30T00:42:53.530Z,2.63
2019-05-30T00:45:59.945Z,2.60
2019-05-30T00:49:06.505Z,2.50
2019-05-30T00:52:14.875Z,3.47
2019-05-30T00:55:19.777Z,2.73
2019-05-30T00:58:24.918Z,2.97
2019-05-30T01:01:30.089Z,2.90
2019-05-30T01:04:35.219Z,2.70
2019-05-30T01:07:40.358Z,2.60
2019-05-30T01:10:45.493Z,2.60
2019-05-30T01:13:50.657Z,3.60
2019-05-30T01:16:56.983Z,2.27
2019-05-30T01:20:03.186Z,2.53
2019-05-30T01:23:08.378Z,2.70
2019-05-30T01:26:13.744Z,2.70
2019-05-30T01:29:18.919Z,2.50
2019-05-30T01:32:30.207Z,2.60
2019-05-30T01:35:35.443Z,2.63
2019-05-30T01:38:42.160Z,2.70
2019-05-30T01:41:47.364Z,2.50
2019-05-30T01:44:52.617Z,2.40
2019-05-30T01:47:58.185Z,2.53
2019-05-30T01:51:04.597Z,2.50
2019-05-30T01:54:09.809Z,2.77
2019-05-30T01:57:14.990Z,2.40
2019-05-30T02:00:21.618Z,3.03
2019-05-30T02:03:26.988Z,2.80
2019-05-30T02:06:32.271Z,2.53
2019-05-30T02:09:37.360Z,2.50
2019-05-30T02:12:42.488Z,2.80
2019-05-30T02:15:47.623Z,2.80
2019-05-30T02:18:52.740Z,2.73
2019-05-30T02:21:57.905Z,2.70
2019-05-30T02:25:03.938Z,3.20
2019-05-30T02:28:10.923Z,2.90
2019-05-30T02:31:16.035Z,2.80
2019-05-30T02:34:24.359Z,2.93
2019-05-30T02:37:29.553Z,2.90
2019-05-30T02:40:34.730Z,3.17
2019-05-30T02:43:39.875Z,2.87
2019-05-30T02:46:45.040Z,2.90
2019-05-30T02:49:50.186Z,3.50
2019-05-30T02:52:55.358Z,3.17
2019-05-30T02:56:01.409Z,3.00
2019-05-30T02:59:08.795Z,3.13
2019-05-30T03:02:17.143Z,3.10
2019-05-30T03:05:20.458Z,3.07
2019-05-30T03:08:25.723Z,3.70
2019-05-30T03:11:30.925Z,3.40
2019-05-30T03:14:36.110Z,3.67
2019-05-30T03:17:41.260Z,3.47
2019-05-30T03:20:46.515Z,4.17
2019-05-30T03:23:51.644Z,3.47
2019-05-30T03:26:56.866Z,3.37
2019-05-30T03:30:08.484Z,3.40
2019-05-30T03:33:32.891Z,3.70
2019-05-30T03:36:28.698Z,3.30
2019-05-30T03:39:25.955Z,3.50
2019-05-30T03:42:31.119Z,3.73
2019-05-30T03:45:37.732Z,3.60
2019-05-30T03:48:44.779Z,3.50
2019-05-30T03:51:51.209Z,3.30
2019-05-30T03:54:56.757Z,4.00
2019-05-30T03:58:14.323Z,2.80
2019-05-30T04:01:31.465Z,3.53
2019-05-30T04:04:36.691Z,3.63
2019-05-30T04:07:45.915Z,3.60
2019-05-30T04:10:54.452Z,4.00
2019-05-30T04:14:03.462Z,4.17
2019-05-30T04:17:10.560Z,3.70
2019-05-30T04:20:20.641Z,3.63
2019-05-30T04:23:22.387Z,3.10
2019-05-30T04:26:27.601Z,3.57
2019-05-30T04:29:32.705Z,3.77
2019-05-30T04:32:37.876Z,4.00
2019-05-30T04:35:42.991Z,3.57
2019-05-30T04:38:48.266Z,3.57
2019-05-30T04:41:53.389Z,3.87
2019-05-30T04:44:58.505Z,4.33
2019-05-30T04:48:03.731Z,3.60
2019-05-30T04:51:10.262Z,3.80
2019-05-30T04:54:16.870Z,3.63
2019-05-30T04:57:26.791Z,3.87
2019-05-30T05:00:29.431Z,4.17
2019-05-30T05:03:45.091Z,3.93
2019-05-30T05:06:41.400Z,4.00
2019-05-30T05:09:47.630Z,4.43
2019-05-30T05:12:52.854Z,3.90
2019-05-30T05:16:00.580Z,4.00
2019-05-30T05:19:05.736Z,3.60
2019-05-30T05:22:10.832Z,3.70
2019-05-30T05:25:17.352Z,3.90
2019-05-30T05:28:24.062Z,4.20
2019-05-30T05:31:30.412Z,3.63
2019-05-30T05:34:35.605Z,3.70
2019-05-30T05:37:40.770Z,4.13
2019-05-30T05:40:45.970Z,3.60
2019-05-30T05:43:51.160Z,3.87
2019-05-30T05:46:56.309Z,3.90
2019-05-30T05:50:01.445Z,3.70
2019-05-30T05:53:06.595Z,3.83
2019-05-30T05:56:11.754Z,3.90
2019-05-30T05:59:17.083Z,3.80
2019-05-30T06:02:23.242Z,3.87
2019-05-30T06:05:28.550Z,3.73
2019-05-30T06:08:35.342Z,3.63
2019-05-30T06:11:40.474Z,4.00
2019-05-30T06:14:47.337Z,4.20
2019-05-30T06:17:52.506Z,3.47
2019-05-30T06:20:58.759Z,3.60
2019-05-30T06:24:03.992Z,3.80
2019-05-30T06:27:09.112Z,3.83
2019-05-30T06:30:14.562Z,3.97
2019-05-30T06:33:20.577Z,3.77
2019-05-30T06:36:27.241Z,3.87
2019-05-30T06:39:32.547Z,3.80
2019-05-30T06:42:39.679Z,4.07
2019-05-30T06:45:44.914Z,3.60
2019-05-30T06:48:50.033Z,3.80
2019-05-30T06:51:55.301Z,3.87
2019-05-30T06:55:00.556Z,3.93
2019-05-30T06:58:05.931Z,3.60
2019-05-30T07:01:12.210Z,3.67
2019-05-30T07:04:17.827Z,3.57
2019-05-30T07:07:24.920Z,3.63
2019-05-30T07:10:31.120Z,3.77
2019-05-30T07:13:36.779Z,3.70
2019-05-30T07:16:41.916Z,3.97
2019-05-30T07:19:47.117Z,3.80
2019-05-30T07:22:52.277Z,3.80
2019-05-30T07:25:57.443Z,3.73
2019-05-30T07:29:02.588Z,3.77
2019-05-30T07:32:07.793Z,3.30
2019-05-30T07:35:13.141Z,3.83
2019-05-30T07:38:18.279Z,3.43
2019-05-30T07:41:24.582Z,3.83
2019-05-30T07:44:30.839Z,3.80
2019-05-30T07:47:36.107Z,3.67
2019-05-30T07:50:41.312Z,3.77
2019-05-30T07:53:46.520Z,3.67
2019-05-30T07:56:51.674Z,3.70
2019-05-30T07:59:56.971Z,3.30
2019-05-30T08:03:03.201Z,3.77
2019-05-30T08:06:08.424Z,3.30
2019-05-30T08:09:13.569Z,3.73
2019-05-30T08:12:20.291Z,3.30
2019-05-30T08:15:25.418Z,3.40
2019-05-30T08:18:31.654Z,3.17
2019-05-30T08:21:38.076Z,3.43
2019-05-30T08:24:43.566Z,3.23
2019-05-30T08:27:48.745Z,3.40
2019-05-30T08:30:56.794Z,3.80
2019-05-30T08:34:00.723Z,3.20
2019-05-30T08:37:06.082Z,3.40
2019-05-30T08:40:13.602Z,3.20
2019-05-30T08:43:18.820Z,2.93
2019-05-30T08:46:25.796Z,3.07
2019-05-30T08:49:31.843Z,3.30
2019-05-30T08:52:38.481Z,3.03
2019-05-30T08:55:44.175Z,3.67
2019-05-30T08:58:50.456Z,3.60
2019-05-30T09:01:55.676Z,3.30
2019-05-30T09:05:00.870Z,3.30
2019-05-30T09:08:06.188Z,3.30
2019-05-30T09:11:11.382Z,3.80
2019-05-30T09:14:16.571Z,3.43
2019-05-30T09:17:21.743Z,3.70
2019-05-30T09:20:27.063Z,3.20
2019-05-30T09:23:32.303Z,3.60
2019-05-30T09:26:38.530Z,3.60
2019-05-30T09:29:44.697Z,3.30
2019-05-30T09:32:50.035Z,3.10
2019-05-30T09:35:55.137Z,3.50
2019-05-30T09:39:00.351Z,3.77
2019-05-30T09:42:05.750Z,3.50
2019-05-30T09:45:11.845Z,3.80
2019-05-30T09:48:17.021Z,3.33
2019-05-30T09:51:22.285Z,3.50
2019-05-30T09:54:27.521Z,4.10
2019-05-30T09:57:32.791Z,3.10
2019-05-30T10:00:38.128Z,3.30
2019-05-30T10:03:43.659Z,3.50
2019-05-30T10:06:50.534Z,3.40
2019-05-30T10:09:55.756Z,3.90
2019-05-30T10:13:00.876Z,3.33
2019-05-30T10:16:06.146Z,3.40
2019-05-30T10:19:11.359Z,3.80
2019-05-30T10:22:16.511Z,3.37
2019-05-30T10:25:21.685Z,4.00
2019-05-30T10:28:26.941Z,4.07
2019-05-30T10:31:32.038Z,3.17
2019-05-30T10:34:38.270Z,3.30
2019-05-30T10:37:45.299Z,3.40
2019-05-30T10:40:50.551Z,3.30
2019-05-30T10:43:57.254Z,2.80
2019-05-30T10:47:02.514Z,3.13
2019-05-30T10:50:08.825Z,3.23
2019-05-30T10:53:14.078Z,3.30
2019-05-30T10:56:19.300Z,2.83
2019-05-30T10:59:24.478Z,3.40
2019-05-30T11:02:30.256Z,3.07
2019-05-30T11:05:35.947Z,2.83
2019-05-30T11:08:43.173Z,3.07
2019-05-30T11:11:48.587Z,3.10
2019-05-30T11:14:55.250Z,2.90
2019-05-30T11:18:01.471Z,2.90
2019-05-30T11:21:06.824Z,3.27
2019-05-30T11:24:12.052Z,2.80
2019-05-30T11:27:17.906Z,3.00
2019-05-30T11:30:23.542Z,3.30
2019-05-30T11:33:28.860Z,3.20
2019-05-30T11:36:36.145Z,3.30
2019-05-30T11:39:41.428Z,3.23
2019-05-30T11:42:49.303Z,3.40
2019-05-30T11:45:55.874Z,3.40
2019-05-30T11:49:01.291Z,3.93
2019-05-30T11:52:06.551Z,3.80
2019-05-30T11:55:11.962Z,5.07
2019-05-30T11:58:19.572Z,3.63
2019-05-30T12:01:24.027Z,3.80
2019-05-30T12:04:29.202Z,3.50
2019-05-30T12:07:36.787Z,3.30
2019-05-30T12:10:45.025Z,3.83
2019-05-30T12:13:51.762Z,3.97
2019-05-30T12:16:57.354Z,4.30
2019-05-30T12:20:02.613Z,4.33
2019-05-30T12:23:07.725Z,4.03
2019-05-30T12:26:12.889Z,4.47
2019-05-30T12:29:17.993Z,4.50
2019-05-30T12:32:24.136Z,4.87
2019-05-30T12:35:29.233Z,5.00
2019-05-30T12:38:34.482Z,5.03
2019-05-30T12:41:39.567Z,4.97
2019-05-30T12:44:45.808Z,5.80
2019-05-30T12:47:51.063Z,5.27
2019-05-30T12:50:57.215Z,5.27
2019-05-30T12:54:02.805Z,4.70
2019-05-30T12:57:08.116Z,5.33
2019-05-30T13:00:18.613Z,5.30
2019-05-30T13:03:22.267Z,5.70
2019-05-30T13:06:27.530Z,5.40
2019-05-30T13:09:32.762Z,5.77
2019-05-30T13:12:37.924Z,5.90
2019-05-30T13:15:43.108Z,5.07
2019-05-30T13:18:48.266Z,6.03
2019-05-30T13:21:53.920Z,6.57
2019-05-30T13:25:01.831Z,7.23
2019-05-30T13:28:08.635Z,6.90
2019-05-30T13:31:13.987Z,7.57
2019-05-30T13:34:19.078Z,7.07
2019-05-30T13:37:24.257Z,8.20
2019-05-30T13:40:29.403Z,7.70
2019-05-30T13:43:34.596Z,8.87
2019-05-30T13:46:39.695Z,8.20
2019-05-30T13:49:44.924Z,7.73
2019-05-30T13:52:50.034Z,7.40
2019-05-30T13:55:56.363Z,7.80
2019-05-30T13:59:01.818Z,8.40
2019-05-30T14:02:08.209Z,7.80
2019-05-30T14:05:13.919Z,7.73
2019-05-30T14:08:19.136Z,7.80
2019-05-30T14:11:24.284Z,8.70
2019-05-30T14:14:30.372Z,8.70
2019-05-30T14:17:35.998Z,8.80
2019-05-30T14:20:41.155Z,8.80
2019-05-30T14:23:46.294Z,9.60
2019-05-30T14:26:51.587Z,9.97
2019-05-30T14:29:56.713Z,11.20
2019-05-30T14:33:02.153Z,10.70
2019-05-30T14:36:10.969Z,12.00
2019-05-30T14:39:14.256Z,10.57
2019-05-30T14:42:19.432Z,11.53
2019-05-30T14:45:27.774Z,11.17
2019-05-30T14:48:31.563Z,10.60
2019-05-30T14:51:36.822Z,11.03
2019-05-30T14:54:42.010Z,10.60
2019-05-30T14:57:47.231Z,9.90
2019-05-30T15:00:52.414Z,10.83
2019-05-30T15:03:57.592Z,10.07
2019-05-30T15:07:03.398Z,11.40
2019-05-30T15:10:10.691Z,12.33
2019-05-30T15:13:15.969Z,11.33
2019-05-30T15:16:21.223Z,10.97
2019-05-30T15:19:26.454Z,11.90
2019-05-30T15:22:31.584Z,11.20
2019-05-30T15:25:36.809Z,11.43
2019-05-30T15:28:42.128Z,11.73
2019-05-30T15:31:47.278Z,11.53
2019-05-30T15:34:52.481Z,11.07
2019-05-30T15:37:57.843Z,11.17
2019-05-30T15:41:03.248Z,10.90
2019-05-30T15:44:09.451Z,10.10
2019-05-30T15:47:14.738Z,10.63
2019-05-30T15:50:20.138Z,10.20
2019-05-30T15:53:25.332Z,11.00
2019-05-30T15:56:30.494Z,11.20
2019-05-30T15:59:35.628Z,12.33
2019-05-30T16:02:40.864Z,12.23
2019-05-30T16:05:46.158Z,13.00
2019-05-30T16:08:51.399Z,13.10
2019-05-30T16:11:57.668Z,11.80
2019-05-30T16:15:02.837Z,11.83
2019-05-30T16:18:11.606Z,12.50
2019-05-30T16:21:18.551Z,12.40
2019-05-30T16:24:23.968Z,12.70
2019-05-30T16:27:31.234Z,12.47
2019-05-30T16:30:36.112Z,13.07
2019-05-30T16:33:41.395Z,13.67
2019-05-30T16:36:47.630Z,15.27
2019-05-30T16:40:05.141Z,14.30
2019-05-30T16:42:59.690Z,14.10
2019-05-30T16:46:05.017Z,13.70
2019-05-30T16:49:10.188Z,14.00
2019-05-30T16:52:15.393Z,13.90
2019-05-30T16:55:21.362Z,14.00
2019-05-30T16:58:26.619Z,13.60
2019-05-30T17:01:31.820Z,13.57
2019-05-30T17:04:37.033Z,14.00
2019-05-30T17:07:42.149Z,13.97
2019-05-30T17:10:47.412Z,14.00
2019-05-30T17:13:52.544Z,13.20
2019-05-30T17:16:57.736Z,14.00
2019-05-30T17:20:02.932Z,14.10
2019-05-30T17:23:08.270Z,14.57
2019-05-30T17:26:13.465Z,14.47
2019-05-30T17:29:19.495Z,14.27
2019-05-30T17:32:25.867Z,13.20
2019-05-30T17:35:31.124Z,13.53
2019-05-30T17:38:36.378Z,14.17
2019-05-30T17:41:41.642Z,14.57
2019-05-30T17:44:46.814Z,14.00
2019-05-30T17:48:02.537Z,13.03
2019-05-30T17:50:58.905Z,12.60
2019-05-30T17:54:04.080Z,13.00
2019-05-30T17:57:09.239Z,13.50
2019-05-30T18:00:15.260Z,12.83
2019-05-30T18:03:22.347Z,12.00
2019-05-30T18:06:28.532Z,11.90
2019-05-30T18:09:33.899Z,12.60
2019-05-30T18:12:41.073Z,12.23
2019-05-30T18:15:46.193Z,13.00
2019-05-30T18:18:51.443Z,13.30
2019-05-30T18:21:56.685Z,12.87
2019-05-30T18:25:01.819Z,12.70
2019-05-30T18:28:08.393Z,12.27
2019-05-30T18:31:13.631Z,13.10
2019-05-30T18:34:18.797Z,12.53
2019-05-30T18:37:24.279Z,12.60
2019-05-30T18:40:33.289Z,13.47
2019-05-30T18:43:38.607Z,11.77
2019-05-30T18:46:43.874Z,11.67
2019-05-30T18:49:49.113Z,11.23
2019-05-30T18:52:54.381Z,11.40
2019-05-30T18:55:59.634Z,11.80
2019-05-30T18:59:04.823Z,12.30
2019-05-30T19:02:10.000Z,11.50
2019-05-30T19:05:15.288Z,12.60
2019-05-30T19:08:20.632Z,12.63
2019-05-30T19:11:29.606Z,13.03
2019-05-30T19:14:34.515Z,11.67
2019-05-30T19:17:39.495Z,13.23
2019-05-30T19:20:44.696Z,12.67
2019-05-30T19:23:49.820Z,11.50
2019-05-30T19:26:54.978Z,11.57
2019-05-30T19:30:00.284Z,12.40
2019-05-30T19:33:05.639Z,12.07
2019-05-30T19:36:10.914Z,12.80
2019-05-30T19:39:16.194Z,11.60
2019-05-30T19:42:21.375Z,11.70
2019-05-30T19:45:27.819Z,11.57
2019-05-30T19:48:34.421Z,11.70
2019-05-30T19:51:39.691Z,11.93
2019-05-30T19:54:45.935Z,10.67
2019-05-30T19:57:51.179Z,10.60
2019-05-30T20:00:58.869Z,10.40
2019-05-30T20:04:03.544Z,9.87
2019-05-30T20:07:08.900Z,10.47
2019-05-30T20:10:15.022Z,10.80
2019-05-30T20:13:20.295Z,10.30
2019-05-30T20:16:25.555Z,10.37
2019-05-30T20:19:31.661Z,10.40
2019-05-30T20:22:38.248Z,10.20
2019-05-30T20:25:45.891Z,10.00
2019-05-30T20:28:50.510Z,11.10
2019-05-30T20:31:55.743Z,10.00
2019-05-30T20:35:03.227Z,10.60
2019-05-30T20:38:08.239Z,10.53
2019-05-30T20:41:13.718Z,10.13
2019-05-30T20:44:18.959Z,10.40
2019-05-30T20:47:24.110Z,11.10
2019-05-30T20:50:29.328Z,11.40
2019-05-30T20:53:35.284Z,11.00
2019-05-30T20:56:41.483Z,10.63
2019-05-30T20:59:47.903Z,10.53
2019-05-30T21:02:53.155Z,10.47
2019-05-30T21:05:58.638Z,10.40
2019-05-30T21:09:05.406Z,11.23
2019-05-30T21:12:11.554Z,10.70
2019-05-30T21:15:16.916Z,10.00
2019-05-30T21:18:22.041Z,11.10
2019-05-30T21:21:27.310Z,11.20
2019-05-30T21:24:32.507Z,10.43
2019-05-30T21:27:38.873Z,11.13
2019-05-30T21:30:45.395Z,9.37
2019-05-30T21:33:52.455Z,10.30
2019-05-30T21:36:57.787Z,10.67
2019-05-30T21:40:03.037Z,9.80
2019-05-30T21:43:08.291Z,10.20
2019-05-30T21:46:13.504Z,10.20
2019-05-30T21:49:18.743Z,10.67
2019-05-30T21:52:23.964Z,10.20
2019-05-30T21:55:29.125Z,9.60
2019-05-30T21:58:34.393Z,10.40
2019-05-30T22:01:40.648Z,9.60
2019-05-30T22:04:46.555Z,9.40
2019-05-30T22:07:51.887Z,9.30
2019-05-30T22:10:57.071Z,10.10
2019-05-30T22:14:02.183Z,9.40
2019-05-30T22:17:07.334Z,9.30
2019-05-30T22:20:12.575Z,10.27
2019-05-30T22:23:17.868Z,9.67
2019-05-30T22:26:23.021Z,9.60
2019-05-30T22:29:28.250Z,8.60
2019-05-30T22:32:33.518Z,10.00
2019-05-30T22:35:38.686Z,9.40
2019-05-30T22:38:44.842Z,9.70
2019-05-30T22:41:50.121Z,8.97
2019-05-30T22:44:56.308Z,9.00
2019-05-30T22:48:01.629Z,9.50
2019-05-30T22:51:06.806Z,9.00
2019-05-30T22:54:11.961Z,9.53
2019-05-30T22:57:17.121Z,8.67
2019-05-30T23:00:22.266Z,9.73
2019-05-30T23:03:27.446Z,9.20
2019-05-30T23:06:32.609Z,8.53
2019-05-30T23:09:37.737Z,8.90
2019-05-30T23:12:44.055Z,8.30
2019-05-30T23:15:50.034Z,8.57
2019-05-30T23:18:56.734Z,8.80
2019-05-30T23:22:03.088Z,9.23
2019-05-30T23:25:08.469Z,9.53
2019-05-30T23:28:15.261Z,8.60
2019-05-30T23:31:22.026Z,10.00
2019-05-30T23:34:27.193Z,8.70
2019-05-30T23:37:33.445Z,8.80
2019-05-30T23:40:38.674Z,8.87
2019-05-30T23:43:56.768Z,8.50
2019-05-30T23:46:51.471Z,9.30
2019-05-30T23:49:58.083Z,9.50
2019-05-30T23:53:03.374Z,9.30
2019-05-30T23:56:08.586Z,9.30
2019-05-30T23:59:13.755Z,8.80
